Terminal Aerodrome Forecast
Issued by NWS

Home | Current Version | Previous Version | Graphics & Text | Print | Product List | Glossary On
Versions: 1 2 3 4 5 6 7 8 9 10 11 12 13 14 15 16 17 18 19 20 21 22 23 24 25 26 27 28
000
FTUS43 KLOT 181504 AAA
TAFMDW
TAF AMD
KMDW 181504Z 1815/1918 10015G22KT P6SM OVC025
     FM181700 07014G22KT 4SM -SHRA OVC020
     FM182000 02012G20KT 1 1/2SM -DZRA BR OVC006
     FM190000 35013G21KT 1 1/2SM -DZRA BR OVC006
     FM190100 34014G22KT 1SM -SN BR OVC007
     FM190700 34011KT P6SM BKN015
     FM191000 35010KT P6SM SCT100=

USA.gov is the U.S. government's official web portal to all federal, state and local government web resources and services.